Terminal Aerodrome Forecast
Issued by NWS

Home | Current Version | Previous Version | Text Only | Print | Product List | Glossary On
Versions: 1 2 3 4 5 6 7 8 9 10 11 12 13 14 15 16 17 18 19 20 21 22 23 24 25
000
FTUS43 KGLD 290500
TAFMCK
TAF
KMCK 290528Z 2906/3006 10008KT P6SM SCT250
     FM291800 12015KT P6SM SCT060
     FM292100 12015KT P6SM VCTS BKN050CB
      TEMPO 3003/3006 P6SM -TSRA BKN050CB=

USA.gov is the U.S. government's official web portal to all federal, state and local government web resources and services.